Time;durP1;ratioP1;P1;durP2;ratioP2;P2;SDS_P1;SDS_P2;PMS_P1;PMS_P2;Temp;Humidity;BMP_temperature;BMP_pressure;BME280_temperature;BME280_humidity;BME280_pressure;Samples;Min_cycle;Max_cycle;Signal;HPM_P1;HPM_P2
2023/08/05 00:00:16;;;;;;;0.10;0.10;;;22.70;99.90;;;;;;5060210;28;20079;-76
2023/08/05 00:02:42;;;;;;;0.10;0.10;;;22.80;99.90;;;;;;5058968;28;20028;-78
2023/08/05 00:05:08;;;;;;;0.10;0.10;;;22.70;99.90;;;;;;5060148;28;20023;-75
2023/08/05 00:07:34;;;;;;;0.10;0.10;;;22.80;99.90;;;;;;5059707;28;20095;-77
2023/08/05 00:10:00;;;;;;;0.10;0.10;;;25.30;99.90;;;;;;5059934;28;20112;-76
2023/08/05 00:12:26;;;;;;;0.10;0.10;;;22.80;98.90;;;;;;5059923;28;20013;-77
2023/08/05 00:14:52;;;;;;;0.50;0.50;;;22.60;99.90;;;;;;5059944;28;20688;-76
2023/08/05 00:17:17;;;;;;;0.10;0.10;;;22.70;99.90;;;;;;5059692;28;20013;-76
2023/08/05 00:19:43;;;;;;;0.10;0.10;;;22.80;99.90;;;;;;5059574;28;20040;-78
2023/08/05 00:22:09;;;;;;;0.10;0.10;;;22.90;99.90;;;;;;5059719;28;20025;-76
2023/08/05 00:24:36;;;;;;;0.10;0.10;;;22.90;99.90;;;;;;5059848;28;20028;-76
2023/08/05 00:27:02;;;;;;;0.10;0.10;;;23.00;99.90;;;;;;5060176;28;20552;-73
2023/08/05 00:29:30;;;;;;;1.23;1.17;;;23.00;99.90;;;;;;5059896;28;20070;-76
2023/08/05 00:31:55;;;;;;;0.10;0.10;;;23.00;99.70;;;;;;5059190;28;20017;-76
2023/08/05 00:34:21;;;;;;;0.10;0.10;;;22.70;99.40;;;;;;5059445;28;20085;-80
2023/08/05 00:36:47;;;;;;;0.10;0.10;;;22.40;99.90;;;;;;5059597;28;20253;-76
2023/08/05 00:39:13;;;;;;;0.10;0.10;;;22.40;99.90;;;;;;5059926;28;20048;-75
2023/08/05 00:41:39;;;;;;;0.10;0.10;;;;;;;;;;5059310;28;20677;-76
2023/08/05 00:44:05;;;;;;;0.10;0.10;;;21.80;99.90;;;;;;5059822;28;20032;-78
2023/08/05 00:46:31;;;;;;;0.10;0.10;;;21.80;99.60;;;;;;5059338;28;20016;-75
2023/08/05 00:48:57;;;;;;;0.17;0.17;;;21.00;99.90;;;;;;5059437;28;20049;-76
2023/08/05 00:51:23;;;;;;;0.00;0.00;;;21.00;99.90;;;;;;5059237;28;20116;-78
2023/08/05 00:53:50;;;;;;;0.60;0.60;;;20.90;99.90;;;;;;5058869;28;20103;-79
2023/08/05 00:56:16;;;;;;;0.70;0.65;;;21.00;99.80;;;;;;5059291;28;20054;-77
2023/08/05 00:58:45;;;;;;;0.10;0.10;;;20.90;99.90;;;;;;5059180;28;20021;-80
2023/08/05 01:01:10;;;;;;;0.10;0.10;;;21.10;99.90;;;;;;5059104;28;20765;-79
2023/08/05 01:03:37;;;;;;;0.10;0.10;;;21.30;99.90;;;;;;5059026;28;20112;-75
2023/08/05 01:06:06;;;;;;;1.05;1.05;;;21.40;99.70;;;;;;5058944;28;20095;-76
2023/08/05 01:08:33;;;;;;;0.85;0.57;;;21.40;99.60;;;;;;5059086;28;20016;-77
2023/08/05 01:11:00;;;;;;;0.10;0.10;;;21.10;99.90;;;;;;5041261;28;20028;-85
2023/08/05 01:13:29;;;;;;;0.10;0.10;;;21.00;99.90;;;;;;5058296;28;20693;-81
2023/08/05 01:15:55;;;;;;;1.17;1.15;;;20.90;99.90;;;;;;5058856;28;20013;-79
2023/08/05 01:18:23;;;;;;;3.60;1.95;;;21.20;99.90;;;;;;5058695;28;20069;-83
2023/08/05 01:20:53;;;;;;;0.10;0.10;;;21.40;99.90;;;;;;5040938;28;20150;-79
2023/08/05 01:23:21;;;;;;;0.10;0.10;;;21.50;99.90;;;;;;5058705;28;20028;-77
2023/08/05 01:25:47;;;;;;;0.10;0.10;;;21.30;99.90;;;;;;5059339;28;20081;-79
2023/08/05 01:28:15;;;;;;;0.50;0.50;;;21.30;99.90;;;;;;5040729;28;20032;-79
2023/08/05 01:30:43;;;;;;;0.10;0.10;;;21.20;99.90;;;;;;5058191;28;20033;-75
2023/08/05 01:33:11;;;;;;;0.10;0.10;;;20.80;99.90;;;;;;5058730;28;20035;-76
2023/08/05 01:35:37;;;;;;;0.20;0.20;;;20.40;99.90;;;;;;5058637;28;20013;-74
2023/08/05 01:38:03;;;;;;;0.00;0.00;;;20.80;99.90;;;;;;5058970;28;20398;-76
2023/08/05 01:40:29;;;;;;;2.83;2.72;;;21.30;99.90;;;;;;5058951;28;20024;-75
2023/08/05 01:42:58;;;;;;;0.00;0.00;;;21.40;99.90;;;;;;5058913;28;20024;-76
2023/08/05 01:45:25;;;;;;;0.03;0.03;;;21.20;99.90;;;;;;5057459;28;20044;-78
2023/08/05 01:47:51;;;;;;;4.80;1.30;;;21.20;99.90;;;;;;5058455;28;20078;-77
2023/08/05 01:50:16;;;;;;;0.10;0.10;;;21.30;99.90;;;;;;5058715;28;20036;-81
2023/08/05 01:52:42;;;;;;;0.10;0.10;;;21.20;99.90;;;;;;5058362;28;20043;-76
2023/08/05 01:55:08;;;;;;;0.10;0.10;;;20.70;99.90;;;;;;5058099;28;20017;-77
2023/08/05 01:57:34;;;;;;;0.10;0.10;;;22.00;99.90;;;;;;5058129;28;20013;-75
2023/08/05 02:00:00;;;;;;;0.10;0.10;;;21.80;99.90;;;;;;5058203;28;20567;-78
2023/08/05 02:02:25;;;;;;;0.22;0.22;;;22.10;99.90;;;;;;5057852;28;20032;-78
2023/08/05 02:04:51;;;;;;;0.10;0.10;;;22.20;99.90;;;;;;5058123;28;20663;-75
2023/08/05 02:07:17;;;;;;;0.10;0.10;;;22.40;99.90;;;;;;5040262;28;20107;-77
2023/08/05 02:09:43;;;;;;;0.20;0.20;;;22.50;99.90;;;;;;5057941;28;20020;-80
2023/08/05 02:12:09;;;;;;;0.10;0.10;;;22.30;99.50;;;;;;5058117;28;20009;-77
2023/08/05 02:14:35;;;;;;;0.05;0.05;;;22.10;99.90;;;;;;5057610;28;20059;-79
2023/08/05 02:17:01;;;;;;;0.10;0.10;;;22.40;99.90;;;;;;5040016;28;20024;-79
2023/08/05 02:19:26;;;;;;;0.10;0.10;;;22.20;99.90;;;;;;5057808;28;20025;-79
2023/08/05 02:21:52;;;;;;;0.10;0.10;;;21.80;99.90;;;;;;5057658;28;20592;-77
2023/08/05 02:24:18;;;;;;;0.10;0.10;;;22.00;99.90;;;;;;5057835;28;20114;-77
2023/08/05 02:26:44;;;;;;;0.10;0.10;;;22.00;99.90;;;;;;5057669;28;20082;-76
2023/08/05 02:29:09;;;;;;;0.10;0.10;;;22.10;99.90;;;;;;5058616;28;20669;-75
2023/08/05 02:31:35;;;;;;;0.10;0.10;;;22.20;99.90;;;;;;5039905;28;20025;-76
2023/08/05 02:34:01;;;;;;;0.10;0.10;;;22.30;99.90;;;;;;5057745;28;20434;-75
2023/08/05 02:36:27;;;;;;;0.10;0.10;;;22.40;99.90;;;;;;5058038;28;20297;-76
2023/08/05 02:38:52;;;;;;;0.00;0.00;;;22.00;99.90;;;;;;5058120;28;20725;-78
2023/08/05 02:41:18;;;;;;;0.10;0.10;;;22.00;99.90;;;;;;5057894;28;20571;-76
2023/08/05 02:43:44;;;;;;;0.10;0.10;;;22.30;99.90;;;;;;5058261;28;20032;-82
2023/08/05 02:46:10;;;;;;;0.13;0.13;;;22.90;99.90;;;;;;5057487;28;20017;-76
2023/08/05 02:48:36;;;;;;;0.10;0.10;;;22.10;99.90;;;;;;5057582;28;20025;-77
2023/08/05 02:51:01;;;;;;;0.10;0.10;;;19.70;99.90;;;;;;5038457;28;20033;-81
2023/08/05 02:53:28;;;;;;;0.10;0.10;;;22.00;99.90;;;;;;5057576;28;20031;-80
2023/08/05 02:55:54;;;;;;;0.00;0.00;;;22.00;99.90;;;;;;5057287;28;20025;-76
2023/08/05 02:58:20;;;;;;;0.10;0.10;;;21.80;99.90;;;;;;5039611;28;20667;-79
2023/08/05 03:00:46;;;;;;;0.10;0.10;;;21.80;99.90;;;;;;5057493;28;20021;-80
2023/08/05 03:03:14;;;;;;;0.10;0.10;;;21.70;99.90;;;;;;5057442;28;20040;-80
2023/08/05 03:05:40;;;;;;;0.10;0.10;;;22.30;99.90;;;;;;5057225;28;20177;-76
2023/08/05 03:08:06;;;;;;;0.10;0.10;;;22.10;99.90;;;;;;5057277;28;20024;-76
2023/08/05 03:10:32;;;;;;;0.10;0.10;;;22.20;99.90;;;;;;5057516;28;20801;-77
2023/08/05 03:12:57;;;;;;;0.30;0.30;;;22.30;99.90;;;;;;5039729;28;20059;-77
2023/08/05 03:15:27;;;;;;;0.10;0.10;;;22.40;99.90;;;;;;5057200;28;20535;-77
2023/08/05 03:17:53;;;;;;;0.10;0.10;;;22.30;99.90;;;;;;5057015;28;20514;-77
2023/08/05 03:20:28;;;;;;;0.13;0.13;;;22.20;99.90;;;;;;5039483;28;20027;-78
2023/08/05 03:22:54;;;;;;;0.10;0.10;;;22.10;99.90;;;;;;5057114;28;20085;-76
2023/08/05 03:25:21;;;;;;;0.10;0.10;;;22.00;99.90;;;;;;5056991;28;20017;-76
2023/08/05 03:27:49;;;;;;;0.03;0.03;;;25.00;99.90;;;;;;5057292;28;20100;-76
2023/08/05 03:30:15;;;;;;;0.10;0.10;;;21.70;99.90;;;;;;5056956;28;20009;-74
2023/08/05 03:32:41;;;;;;;0.38;0.38;;;21.50;99.90;;;;;;5056958;28;20028;-79
2023/08/05 03:35:07;;;;;;;0.10;0.10;;;21.50;99.90;;;;;;5057023;28;20024;-75
2023/08/05 03:37:33;;;;;;;0.00;0.00;;;21.40;99.90;;;;;;5059742;28;20562;-74
2023/08/05 03:39:59;;;;;;;0.00;0.00;;;21.60;99.90;;;;;;5060692;28;20055;-78
2023/08/05 03:42:25;;;;;;;0.10;0.10;;;21.70;99.90;;;;;;5060413;28;20059;-80
2023/08/05 03:44:51;;;;;;;0.10;0.10;;;21.80;99.90;;;;;;5060517;28;20029;-74
2023/08/05 03:47:17;;;;;;;0.10;0.10;;;21.90;99.90;;;;;;5060352;28;20636;-75
2023/08/05 03:49:43;;;;;;;0.10;0.10;;;22.00;99.90;;;;;;5060334;28;20048;-76
2023/08/05 03:52:09;;;;;;;0.75;0.75;;;22.20;99.90;;;;;;5060449;28;20719;-80
2023/08/05 03:54:34;;;;;;;0.10;0.10;;;22.30;99.90;;;;;;5060409;28;20108;-75
2023/08/05 03:57:02;;;;;;;0.13;0.13;;;22.40;99.90;;;;;;5060160;28;20099;-81
2023/08/05 03:59:28;;;;;;;0.10;0.10;;;23.70;99.90;;;;;;5060304;28;20024;-74
2023/08/05 04:01:54;;;;;;;0.20;0.20;;;22.40;99.90;;;;;;5060088;28;20029;-75
2023/08/05 04:04:20;;;;;;;0.40;0.40;;;22.50;99.90;;;;;;5059934;28;20080;-75
2023/08/05 04:06:46;;;;;;;0.10;0.10;;;22.60;99.90;;;;;;5059901;28;20595;-80
2023/08/05 04:09:13;;;;;;;0.15;0.15;;;22.60;99.90;;;;;;5059754;28;20027;-76
2023/08/05 04:11:39;;;;;;;1.13;1.13;;;22.60;99.90;;;;;;5041988;28;20055;-84
2023/08/05 04:14:05;;;;;;;0.10;0.10;;;22.80;99.90;;;;;;5059637;28;20663;-76
2023/08/05 04:16:30;;;;;;;0.32;0.32;;;22.70;99.90;;;;;;5060234;28;20024;-79
2023/08/05 04:18:58;;;;;;;1.45;1.35;;;22.80;99.90;;;;;;5059982;28;20494;-75
2023/08/05 04:21:28;;;;;;;0.10;0.10;;;22.80;99.90;;;;;;5060102;28;20024;-77
2023/08/05 04:23:58;;;;;;;0.40;0.40;;;22.70;99.90;;;;;;5059752;28;20664;-75
2023/08/05 04:26:24;;;;;;;0.10;0.10;;;22.60;99.90;;;;;;5041749;28;20123;-76
2023/08/05 04:28:49;;;;;;;0.30;0.30;;;22.70;99.90;;;;;;5059431;28;20100;-75
2023/08/05 04:31:15;;;;;;;1.88;1.75;;;22.60;99.90;;;;;;5059337;28;20035;-76
2023/08/05 04:33:42;;;;;;;0.22;0.22;;;22.60;99.90;;;;;;5059413;28;20087;-74
2023/08/05 04:36:07;;;;;;;0.20;0.20;;;22.10;99.90;;;;;;5041115;28;20655;-82
2023/08/05 04:38:33;;;;;;;0.77;0.77;;;22.00;99.90;;;;;;5059352;28;20051;-76
2023/08/05 04:41:00;;;;;;;0.95;0.85;;;22.10;99.90;;;;;;5059460;28;20028;-75
2023/08/05 04:43:25;;;;;;;0.10;0.10;;;21.90;99.90;;;;;;5059612;28;20675;-77
2023/08/05 04:45:51;;;;;;;0.30;0.30;;;22.10;99.90;;;;;;5059035;28;20094;-76
2023/08/05 04:48:17;;;;;;;0.10;0.10;;;22.30;99.90;;;;;;5058749;28;20754;-77
2023/08/05 04:50:43;;;;;;;0.00;0.00;;;22.40;99.90;;;;;;5059828;28;20101;-76
2023/08/05 04:53:09;;;;;;;0.25;0.25;;;22.20;99.90;;;;;;5059270;28;20021;-76
2023/08/05 04:55:35;;;;;;;0.10;0.10;;;22.20;99.90;;;;;;5059121;28;20055;-79
2023/08/05 04:58:02;;;;;;;0.10;0.10;;;21.70;99.90;;;;;;5059648;28;20122;-75
2023/08/05 05:00:28;;;;;;;3.10;3.00;;;21.90;99.90;;;;;;5040991;28;20055;-77
2023/08/05 05:02:54;;;;;;;0.00;0.00;;;22.10;99.90;;;;;;5059070;28;20064;-75
2023/08/05 05:05:19;;;;;;;0.68;0.68;;;22.20;99.90;;;;;;5059107;28;20589;-76
2023/08/05 05:07:45;;;;;;;0.30;0.30;;;22.20;99.90;;;;;;5058783;28;20570;-80
2023/08/05 05:10:11;;;;;;;1.25;1.15;;;23.20;99.90;;;;;;5040893;28;20302;-77
2023/08/05 05:12:37;;;;;;;0.60;0.60;;;21.70;99.90;;;;;;5058779;28;20020;-76
2023/08/05 05:15:03;;;;;;;1.27;1.20;;;21.70;99.90;;;;;;5023630;28;20029;-75
2023/08/05 05:17:38;;;;;;;0.13;0.13;;;21.50;99.90;;;;;;5058642;28;20664;-76
2023/08/05 05:20:04;;;;;;;0.10;0.10;;;21.10;99.90;;;;;;5058602;28;20019;-76
2023/08/05 05:22:30;;;;;;;0.10;0.10;;;20.90;99.90;;;;;;5058896;28;20025;-75
2023/08/05 05:24:56;;;;;;;0.70;0.70;;;20.70;99.90;;;;;;5058915;28;20017;-76
2023/08/05 05:27:22;;;;;;;0.10;0.10;;;21.00;99.90;;;;;;5058571;28;20118;-81
2023/08/05 05:29:48;;;;;;;0.35;0.35;;;21.20;99.90;;;;;;5059314;28;20032;-77
2023/08/05 05:32:14;;;;;;;0.10;0.10;;;20.80;99.90;;;;;;5058878;28;20656;-80
2023/08/05 05:34:39;;;;;;;0.75;0.75;;;20.40;99.90;;;;;;5058712;28;20078;-86
2023/08/05 05:37:05;;;;;;;0.10;0.10;;;20.40;99.90;;;;;;5058848;28;20017;-80
2023/08/05 05:39:32;;;;;;;0.90;0.90;;;20.40;99.90;;;;;;5059140;28;20020;-82
2023/08/05 05:41:58;;;;;;;0.10;0.10;;;20.60;99.90;;;;;;5058382;28;20021;-75
2023/08/05 05:44:24;;;;;;;0.00;0.00;;;20.90;99.90;;;;;;5058755;28;20115;-76
2023/08/05 05:46:49;;;;;;;0.47;0.47;;;21.20;99.90;;;;;;5058872;28;20017;-78
2023/08/05 05:49:15;;;;;;;40.65;2.58;;;21.60;99.90;;;;;;5058685;28;20024;-82
2023/08/05 05:51:45;;;;;;;0.85;0.85;;;21.60;99.90;;;;;;5040478;28;20186;-77
2023/08/05 05:54:12;;;;;;;0.10;0.10;;;21.80;99.90;;;;;;5057890;28;20028;-83
2023/08/05 05:56:37;;;;;;;0.10;0.10;;;22.00;99.90;;;;;;5058089;28;20671;-79
2023/08/05 05:59:03;;;;;;;0.43;0.43;;;22.20;99.90;;;;;;5058137;28;20077;-76
2023/08/05 06:01:29;;;;;;;0.10;0.10;;;22.20;99.90;;;;;;5057923;28;20021;-76
2023/08/05 06:03:55;;;;;;;0.63;0.63;;;22.00;99.90;;;;;;5057857;28;20036;-76
2023/08/05 06:06:20;;;;;;;0.10;0.10;;;21.60;99.90;;;;;;5057896;28;20112;-76
2023/08/05 06:08:46;;;;;;;0.10;0.10;;;21.40;99.90;;;;;;5057811;28;20228;-75
2023/08/05 06:11:12;;;;;;;0.10;0.10;;;21.10;99.90;;;;;;5039909;28;20013;-80
2023/08/05 06:13:38;;;;;;;0.55;0.55;;;18.00;99.90;;;;;;5057478;28;20024;-76
2023/08/05 06:16:05;;;;;;;0.30;0.30;;;21.00;99.90;;;;;;5023409;28;20194;-76
2023/08/05 06:18:30;;;;;;;0.55;0.55;;;21.00;99.90;;;;;;5057590;28;20027;-80
2023/08/05 06:20:56;;;;;;;0.90;0.90;;;21.00;99.90;;;;;;5057679;28;20033;-76
2023/08/05 06:23:22;;;;;;;1.00;1.00;;;20.50;99.90;;;;;;5023185;28;20711;-76
2023/08/05 06:25:48;;;;;;;0.10;0.10;;;20.20;99.90;;;;;;5057587;28;20593;-75
2023/08/05 06:28:13;;;;;;;0.10;0.10;;;20.10;99.90;;;;;;5058467;28;20874;-77
2023/08/05 06:30:46;;;;;;;0.10;0.10;;;20.10;99.90;;;;;;5057256;28;20490;-75
2023/08/05 06:33:12;;;;;;;0.10;0.10;;;20.10;99.90;;;;;;5057724;28;20039;-75
2023/08/05 06:35:41;;;;;;;0.10;0.10;;;20.40;99.90;;;;;;5057813;28;20090;-77
2023/08/05 06:38:07;;;;;;;0.08;0.08;;;20.30;99.90;;;;;;5057667;28;20012;-77
2023/08/05 06:40:33;;;;;;;0.10;0.10;;;20.40;99.90;;;;;;5057311;28;20567;-74
2023/08/05 06:42:59;;;;;;;0.10;0.10;;;20.20;99.90;;;;;;5057266;28;20519;-77
2023/08/05 06:45:24;;;;;;;0.10;0.10;;;20.30;99.90;;;;;;5057679;28;20051;-76
2023/08/05 06:47:50;;;;;;;0.10;0.10;;;20.30;99.90;;;;;;5057519;28;20021;-75
2023/08/05 06:50:16;;;;;;;0.10;0.10;;;19.80;99.90;;;;;;5057322;28;20617;-77
2023/08/05 06:52:42;;;;;;;0.00;0.00;;;19.80;99.90;;;;;;5057383;28;20028;-76
2023/08/05 06:55:08;;;;;;;0.57;0.52;;;19.40;99.90;;;;;;5057869;28;20671;-78
2023/08/05 06:57:34;;;;;;;0.10;0.10;;;19.80;99.90;;;;;;5038769;28;20074;-75
2023/08/05 07:00:00;;;;;;;0.40;0.40;;;19.80;99.90;;;;;;5039016;28;20074;-77
2023/08/05 07:02:26;;;;;;;0.00;0.00;;;19.50;99.90;;;;;;5038810;28;20044;-75
2023/08/05 07:04:52;;;;;;;0.13;0.13;;;19.80;99.90;;;;;;5057432;28;20143;-75
2023/08/05 07:07:19;;;;;;;0.20;0.20;;;19.70;99.90;;;;;;5040014;28;20017;-76
2023/08/05 07:09:45;;;;;;;0.10;0.10;;;19.60;99.90;;;;;;5057222;28;20713;-76
2023/08/05 07:12:11;;;;;;;0.00;0.00;;;19.60;99.90;;;;;;5040722;28;20024;-79
2023/08/05 07:14:38;;;;;;;0.10;0.10;;;19.60;99.90;;;;;;5060647;28;20048;-79
2023/08/05 07:17:04;;;;;;;0.10;0.10;;;19.80;99.90;;;;;;5043214;28;20024;-76
2023/08/05 07:19:30;;;;;;;0.10;0.10;;;19.70;99.90;;;;;;5042676;28;20499;-74
2023/08/05 07:21:56;;;;;;;0.10;0.10;;;19.80;99.90;;;;;;5060528;28;20088;-76
2023/08/05 07:24:25;;;;;;;0.10;0.10;;;19.80;99.90;;;;;;5061170;28;20028;-77
2023/08/05 07:26:51;;;;;;;0.10;0.10;;;21.80;99.90;;;;;;5043163;28;20021;-73
2023/08/05 07:29:17;;;;;;;1.17;1.17;;;19.70;99.90;;;;;;5061915;28;20030;-75
2023/08/05 07:31:42;;;;;;;0.50;0.25;;;19.70;99.90;;;;;;5061251;28;20110;-79
2023/08/05 07:34:09;;;;;;;0.10;0.10;;;;;;;;;;5061020;28;20628;-76
2023/08/05 07:36:36;;;;;;;0.10;0.10;;;19.80;99.90;;;;;;5061082;28;20031;-75
2023/08/05 07:39:06;;;;;;;0.15;0.15;;;20.20;99.90;;;;;;5061301;28;20082;-75
2023/08/05 07:41:32;;;;;;;0.10;0.10;;;20.20;99.90;;;;;;5043477;28;20303;-79
2023/08/05 07:43:58;;;;;;;0.08;0.08;;;20.30;99.90;;;;;;5060333;28;20308;-75
2023/08/05 07:46:25;;;;;;;0.10;0.10;;;20.90;99.90;;;;;;5042420;28;20112;-79
2023/08/05 07:48:52;;;;;;;0.10;0.10;;;20.40;99.90;;;;;;5060353;28;20017;-77
2023/08/05 07:51:19;;;;;;;0.20;0.20;;;20.40;99.90;;;;;;5060272;28;20202;-76
2023/08/05 07:53:48;;;;;;;0.10;0.10;;;20.40;99.90;;;;;;5060319;28;20112;-77
2023/08/05 07:56:14;;;;;;;0.10;0.10;;;22.20;99.90;;;;;;5059962;28;20574;-76
2023/08/05 07:58:45;;;;;;;0.10;0.10;;;20.60;99.90;;;;;;5060449;28;20028;-76
2023/08/05 08:01:13;;;;;;;0.00;0.00;;;20.70;99.90;;;;;;5060272;28;20024;-82
2023/08/05 08:03:41;;;;;;;0.10;0.10;;;22.80;99.90;;;;;;5061099;28;20028;-76
2023/08/05 08:06:07;;;;;;;0.10;0.10;;;21.40;99.90;;;;;;5063131;28;20023;-86
2023/08/05 08:08:33;;;;;;;0.10;0.10;;;21.60;99.90;;;;;;5061446;28;20104;-85
2023/08/05 08:10:59;;;;;;;0.00;0.00;;;;;;;;;;5060532;28;20104;-76
2023/08/05 08:13:25;;;;;;;0.10;0.10;;;21.20;99.90;;;;;;5043151;28;20021;-76
2023/08/05 08:15:51;;;;;;;0.10;0.10;;;21.10;99.90;;;;;;5062646;28;20019;-78
2023/08/05 08:18:17;;;;;;;0.10;0.10;;;;;;;;;;5061049;28;20021;-83
2023/08/05 08:20:50;;;;;;;0.98;0.93;;;21.30;99.90;;;;;;5060978;28;20049;-83
2023/08/05 08:23:16;;;;;;;0.00;0.00;;;21.10;99.90;;;;;;5059575;28;20029;-79
2023/08/05 08:25:42;;;;;;;0.10;0.10;;;20.90;99.90;;;;;;5042292;28;20090;-76
2023/08/05 08:28:08;;;;;;;0.20;0.20;;;20.80;99.90;;;;;;5059763;28;20103;-77
2023/08/05 08:30:33;;;;;;;1.10;1.00;;;20.90;99.90;;;;;;5058983;28;20719;-78
2023/08/05 08:32:59;;;;;;;0.10;0.10;;;21.20;99.90;;;;;;5059654;28;20032;-78
2023/08/05 08:35:25;;;;;;;0.17;0.17;;;21.10;99.90;;;;;;5059606;28;20091;-77
2023/08/05 08:37:50;;;;;;;0.10;0.10;;;21.40;99.90;;;;;;5059557;28;20028;-77
2023/08/05 08:40:16;;;;;;;0.10;0.10;;;21.60;99.90;;;;;;5059637;28;20039;-76
2023/08/05 08:42:43;;;;;;;0.10;0.10;;;21.60;99.90;;;;;;5059052;28;20029;-76
2023/08/05 08:45:14;;;;;;;0.08;0.08;;;21.50;99.90;;;;;;5041178;28;20707;-76
2023/08/05 08:47:40;;;;;;;0.10;0.10;;;21.30;99.90;;;;;;5059009;28;20021;-77
2023/08/05 08:50:07;;;;;;;0.10;0.10;;;21.30;99.90;;;;;;5059621;28;20078;-78
2023/08/05 08:52:35;;;;;;;0.20;0.20;;;21.30;99.90;;;;;;5037766;28;20609;-75
2023/08/05 08:55:03;;;;;;;0.10;0.10;;;21.20;99.90;;;;;;5039160;28;20032;-81
2023/08/05 08:57:29;;;;;;;0.10;0.10;;;21.40;99.90;;;;;;5039891;28;20036;-79
2023/08/05 08:59:55;;;;;;;0.10;0.10;;;20.60;99.90;;;;;;5038956;28;20114;-76
2023/08/05 09:02:26;;;;;;;0.05;0.05;;;22.40;99.90;;;;;;5038966;28;20032;-76
2023/08/05 09:04:55;;;;;;;0.10;0.10;;;21.80;99.90;;;;;;5039533;28;20036;-77
2023/08/05 09:07:27;;;;;;;4.18;1.02;;;22.10;99.90;;;;;;5039470;28;20025;-80
2023/08/05 09:09:57;;;;;;;0.00;0.00;;;21.90;99.90;;;;;;5037678;28;20085;-76
2023/08/05 09:12:23;;;;;;;0.10;0.10;;;22.00;99.90;;;;;;5038561;28;20171;-74
2023/08/05 09:14:53;;;;;;;0.20;0.20;;;22.20;99.90;;;;;;5039374;28;20104;-78
2023/08/05 09:17:19;;;;;;;0.10;0.10;;;22.40;99.90;;;;;;5038327;28;20192;-79
2023/08/05 09:19:45;;;;;;;0.20;0.20;;;21.00;99.90;;;;;;5038952;28;20722;-76
2023/08/05 09:22:10;;;;;;;0.10;0.10;;;22.90;99.90;;;;;;5038693;28;20213;-76
2023/08/05 09:24:36;;;;;;;0.10;0.10;;;22.50;99.90;;;;;;5039052;28;20096;-76
2023/08/05 09:27:02;;;;;;;0.10;0.10;;;22.50;99.90;;;;;;5037261;28;20029;-80
2023/08/05 09:29:28;;;;;;;0.10;0.10;;;22.60;99.90;;;;;;5038928;28;20675;-80
2023/08/05 09:32:01;;;;;;;0.10;0.10;;;22.70;99.90;;;;;;5038797;28;20674;-76
2023/08/05 09:34:39;;;;;;;0.10;0.10;;;26.20;99.90;;;;;;5036764;28;20108;-75
2023/08/05 09:37:06;;;;;;;0.20;0.20;;;23.00;99.90;;;;;;5038700;28;20033;-76
2023/08/05 09:39:47;;;;;;;0.10;0.10;;;23.00;99.90;;;;;;5037572;28;20078;-79
2023/08/05 09:42:24;;;;;;;0.10;0.10;;;23.10;99.90;;;;;;5038662;28;20017;-76
2023/08/05 09:44:57;;;;;;;0.10;0.10;;;23.10;99.90;;;;;;5038737;28;20029;-76
2023/08/05 09:47:28;;;;;;;0.10;0.10;;;22.90;99.90;;;;;;5038077;28;20028;-77
2023/08/05 09:49:56;;;;;;;0.10;0.10;;;23.10;99.90;;;;;;5019981;28;20025;-75
2023/08/05 09:52:23;;;;;;;0.10;0.10;;;;;;;;;;5055819;28;20275;-77
2023/08/05 09:55:11;;;;;;;0.10;0.10;;;23.30;99.90;;;;;;5040234;28;20020;-77
2023/08/05 09:57:37;;;;;;;0.10;0.10;;;23.30;99.90;;;;;;5057913;28;20663;-76
2023/08/05 10:00:08;;;;;;;0.10;0.10;;;23.30;99.90;;;;;;5057706;28;20078;-76
2023/08/05 10:02:35;;;;;;;0.10;0.10;;;23.40;99.90;;;;;;5057540;28;20473;-76
2023/08/05 10:05:02;;;;;;;0.10;0.10;;;23.40;99.90;;;;;;5057757;28;20020;-75
2023/08/05 10:07:28;;;;;;;0.10;0.10;;;22.70;99.90;;;;;;5057629;28;20013;-76
2023/08/05 10:09:55;;;;;;;0.10;0.10;;;22.50;99.90;;;;;;5057920;28;20048;-77
2023/08/05 10:12:24;;;;;;;0.10;0.10;;;22.50;99.90;;;;;;5058716;28;20012;-76
2023/08/05 10:14:55;;;;;;;0.10;0.10;;;22.60;99.90;;;;;;5058649;28;20020;-80
2023/08/05 10:17:22;;;;;;;0.10;0.10;;;22.20;99.90;;;;;;5058533;28;20021;-77
2023/08/05 10:19:50;;;;;;;0.10;0.10;;;22.40;99.90;;;;;;5040906;28;20051;-76
2023/08/05 10:22:21;;;;;;;0.10;0.10;;;22.00;99.90;;;;;;5058393;28;20149;-76
2023/08/05 10:25:00;;;;;;;0.00;0.00;;;22.20;99.90;;;;;;5039960;28;20028;-77
2023/08/05 10:27:37;;;;;;;0.10;0.10;;;22.00;99.90;;;;;;5040190;28;20518;-88
2023/08/05 10:30:08;;;;;;;0.10;0.10;;;22.10;99.90;;;;;;5040316;28;20048;-79
2023/08/05 10:32:35;;;;;;;0.00;0.00;;;22.10;99.90;;;;;;5041061;28;20741;-77
2023/08/05 10:35:30;;;;;;;0.10;0.10;;;22.20;99.90;;;;;;5060321;28;20070;-79
2023/08/05 10:38:16;;;;;;;0.08;0.08;;;22.30;99.90;;;;;;5040286;28;20024;-79
2023/08/05 10:41:02;;;;;;;0.10;0.10;;;22.30;99.90;;;;;;5040619;28;20017;-81
2023/08/05 10:43:31;;;;;;;0.10;0.10;;;22.30;99.90;;;;;;5025980;28;20029;-85
2023/08/05 10:45:58;;;;;;;0.10;0.10;;;22.20;99.90;;;;;;5058980;28;20698;-85
2023/08/05 10:48:36;;;;;;;0.10;0.10;;;22.20;99.90;;;;;;5045378;28;20017;-78
2023/08/05 10:51:12;;;;;;;0.10;0.10;;;22.40;99.90;;;;;;5044960;28;20033;-76
2023/08/05 10:53:38;;;;;;;0.10;0.10;;;22.30;99.90;;;;;;5063635;28;20026;-85
2023/08/05 10:56:11;;;;;;;0.10;0.10;;;22.40;99.90;;;;;;5062643;28;20023;-81
2023/08/05 10:58:42;;;;;;;;;;;22.30;99.90;;;;;;5062732;28;20017;-78
2023/08/05 11:01:08;;;;;;;0.10;0.10;;;22.40;99.90;;;;;;5062055;28;19904;-80
2023/08/05 11:03:46;;;;;;;0.10;0.10;;;22.20;99.90;;;;;;5061867;28;20638;-77
2023/08/05 11:06:14;;;;;;;0.10;0.10;;;22.10;99.90;;;;;;5062246;28;20024;-76
2023/08/05 11:08:41;;;;;;;0.82;0.77;;;22.00;99.90;;;;;;5062191;28;20040;-80
2023/08/05 11:11:15;;;;;;;0.15;0.15;;;21.20;99.90;;;;;;5044091;28;20509;-77
2023/08/05 11:13:47;;;;;;;0.10;0.10;;;21.10;99.90;;;;;;5061298;28;20474;-77
2023/08/05 11:16:17;;;;;;;0.10;0.10;;;21.00;99.90;;;;;;5061783;28;20551;-77
2023/08/05 11:18:45;;;;;;;0.10;0.10;;;20.80;99.90;;;;;;5044230;28;20024;-79
2023/08/05 11:21:13;;;;;;;6.18;5.88;;;20.60;99.90;;;;;;5043983;28;20028;-84
2023/08/05 11:23:45;;;;;;;0.10;0.10;;;20.50;99.90;;;;;;5061640;28;20090;-83
2023/08/05 11:26:11;;;;;;;0.20;0.20;;;20.50;99.90;;;;;;5061705;28;20498;-79
2023/08/05 11:28:44;;;;;;;0.50;0.50;;;20.60;99.90;;;;;;5061385;28;20571;-82
2023/08/05 11:31:22;;;;;;;0.10;0.10;;;20.70;99.90;;;;;;5061244;28;20086;-83
2023/08/05 11:33:48;;;;;;;0.10;0.10;;;21.00;99.90;;;;;;5061226;28;20691;-76
2023/08/05 11:36:14;;;;;;;0.10;0.10;;;20.90;99.90;;;;;;5061129;28;20095;-78
2023/08/05 11:38:40;;;;;;;0.10;0.10;;;20.80;99.90;;;;;;5043616;28;20111;-77
2023/08/05 11:41:06;;;;;;;0.10;0.10;;;20.90;99.90;;;;;;5043623;28;20032;-76
2023/08/05 11:43:34;;;;;;;0.10;0.10;;;21.30;99.90;;;;;;5062072;28;20067;-82
2023/08/05 11:46:01;;;;;;;0.20;0.20;;;;;;;;;;5044133;28;20128;-81
2023/08/05 11:48:27;;;;;;;0.98;0.98;;;21.90;99.90;;;;;;5043056;28;20032;-77
2023/08/05 11:51:02;;;;;;;0.10;0.10;;;22.10;99.90;;;;;;5043374;28;20040;-79
2023/08/05 11:53:29;;;;;;;0.10;0.10;;;22.10;99.90;;;;;;5043636;28;20501;-83
2023/08/05 11:55:55;;;;;;;0.08;0.08;;;22.70;99.90;;;;;;5060519;28;20016;-82
2023/08/05 11:58:23;;;;;;;1.65;1.55;;;22.40;99.90;;;;;;5042663;28;20070;-77
2023/08/05 12:00:57;;;;;;;0.30;0.30;;;19.70;99.90;;;;;;5026877;28;20017;-78
2023/08/05 12:03:29;;;;;;;0.10;0.10;;;22.50;99.90;;;;;;5061226;28;20518;-78
2023/08/05 12:06:03;;;;;;;0.10;0.10;;;22.60;99.90;;;;;;5060989;28;20046;-82
2023/08/05 12:08:47;;;;;;;0.10;0.10;;;22.80;99.90;;;;;;5060937;28;20078;-77
2023/08/05 12:11:12;;;;;;;0.13;0.13;;;22.80;99.90;;;;;;5060011;28;20036;-81
2023/08/05 12:13:38;;;;;;;0.10;0.10;;;22.80;99.90;;;;;;5060882;28;20059;-82
2023/08/05 12:16:17;;;;;;;0.10;0.10;;;22.70;99.90;;;;;;5060411;28;20108;-76
2023/08/05 12:18:44;;;;;;;0.15;0.15;;;22.90;99.90;;;;;;5061170;28;20656;-85
2023/08/05 12:21:10;;;;;;;0.25;0.22;;;21.10;99.90;;;;;;5043065;28;20024;-77
2023/08/05 12:23:40;;;;;;;0.47;0.47;;;21.80;99.90;;;;;;5042755;28;20039;-85
2023/08/05 12:26:09;;;;;;;0.10;0.10;;;22.90;99.90;;;;;;5060266;28;20560;-76
2023/08/05 12:28:36;;;;;;;0.05;0.05;;;23.10;99.90;;;;;;5060226;28;20085;-77
2023/08/05 12:31:02;;;;;;;15.70;3.40;;;23.20;99.90;;;;;;5059819;28;20028;-78
2023/08/05 12:33:28;;;;;;;11.95;3.70;;;23.40;99.90;;;;;;5059902;28;20683;-86
2023/08/05 12:35:54;;;;;;;0.10;0.10;;;23.50;99.90;;;;;;5059774;28;20020;-78
2023/08/05 12:38:20;;;;;;;5.03;4.68;;;23.30;99.90;;;;;;5059993;28;20567;-84
2023/08/05 12:40:52;;;;;;;2.60;1.38;;;22.50;99.90;;;;;;5059915;28;20620;-78
2023/08/05 12:43:18;;;;;;;8.40;6.00;;;23.30;99.90;;;;;;5061995;28;20024;-77
2023/08/05 12:45:43;;;;;;;0.32;0.32;;;23.20;99.90;;;;;;5042739;28;20085;-77
2023/08/05 12:48:09;;;;;;;0.25;0.25;;;23.20;99.90;;;;;;5059967;28;20025;-77